sensor_id;sensor_type;location;lat;lon;timestamp;pressure;altitude;pressure_sealevel;temperature;humidity
65546;BME280;52177;55.968;37.498;2023-03-04T00:00:29;98025.03;;;-2.06;74.80
65546;BME280;52177;55.968;37.498;2023-03-04T00:00:59;98026.78;;;-2.06;75.03
65546;BME280;52177;55.968;37.498;2023-03-04T00:01:29;98028.44;;;-2.05;74.97
65546;BME280;52177;55.968;37.498;2023-03-04T00:02:00;98025.03;;;-2.06;74.99
65546;BME280;52177;55.968;37.498;2023-03-04T00:02:30;98019.78;;;-2.06;74.90
65546;BME280;52177;55.968;37.498;2023-03-04T00:03:00;98021.56;;;-2.06;74.91
65546;BME280;52177;55.968;37.498;2023-03-04T00:03:30;98020.63;;;-2.05;74.95
65546;BME280;52177;55.968;37.498;2023-03-04T00:04:01;98020.63;;;-2.05;74.94
65546;BME280;52177;55.968;37.498;2023-03-04T00:04:31;98018.81;;;-2.05;75.06
65546;BME280;52177;55.968;37.498;2023-03-04T00:05:01;98018.13;;;-2.07;74.98
65546;BME280;52177;55.968;37.498;2023-03-04T00:05:32;98014.56;;;-2.06;75.03
65546;BME280;52177;55.968;37.498;2023-03-04T00:06:03;98013.72;;;-2.06;75.05
65546;BME280;52177;55.968;37.498;2023-03-04T00:06:33;98012.78;;;-2.05;75.02
65546;BME280;52177;55.968;37.498;2023-03-04T00:07:03;98009.19;;;-2.04;74.96
65546;BME280;52177;55.968;37.498;2023-03-04T00:07:34;98007.56;;;-2.05;75.00
65546;BME280;52177;55.968;37.498;2023-03-04T00:08:04;98011.81;;;-2.04;74.91
65546;BME280;52177;55.968;37.498;2023-03-04T00:08:34;98008.25;;;-2.03;74.77
65546;BME280;52177;55.968;37.498;2023-03-04T00:09:04;98008.25;;;-2.03;74.75
65546;BME280;52177;55.968;37.498;2023-03-04T00:09:35;98009.19;;;-2.04;74.82
65546;BME280;52177;55.968;37.498;2023-03-04T00:10:05;98010.16;;;-2.05;74.73
65546;BME280;52177;55.968;37.498;2023-03-04T00:10:35;98010.16;;;-2.05;74.75
65546;BME280;52177;55.968;37.498;2023-03-04T00:11:06;98008.38;;;-2.05;74.68
65546;BME280;52177;55.968;37.498;2023-03-04T00:11:36;98009.34;;;-2.06;74.82
65546;BME280;52177;55.968;37.498;2023-03-04T00:12:06;98009.47;;;-2.07;74.95
65546;BME280;52177;55.968;37.498;2023-03-04T00:12:37;98012.38;;;-2.10;75.01
65546;BME280;52177;55.968;37.498;2023-03-04T00:13:07;98008.09;;;-2.12;74.94
65546;BME280;52177;55.968;37.498;2023-03-04T00:13:38;98010.03;;;-2.14;74.94
65546;BME280;52177;55.968;37.498;2023-03-04T00:14:08;98017.03;;;-2.14;75.03
65546;BME280;52177;55.968;37.498;2023-03-04T00:14:38;98011.94;;;-2.16;75.04
65546;BME280;52177;55.968;37.498;2023-03-04T00:15:09;98022.53;;;-2.17;74.96
65546;BME280;52177;55.968;37.498;2023-03-04T00:15:39;98016.63;;;-2.19;74.99
65546;BME280;52177;55.968;37.498;2023-03-04T00:16:09;98015.13;;;-2.22;74.94
65546;BME280;52177;55.968;37.498;2023-03-04T00:16:39;98023.91;;;-2.23;75.03
65546;BME280;52177;55.968;37.498;2023-03-04T00:17:10;98024.06;;;-2.24;75.09
65546;BME280;52177;55.968;37.498;2023-03-04T00:17:40;98020.06;;;-2.28;75.09
65546;BME280;52177;55.968;37.498;2023-03-04T00:18:10;98027.06;;;-2.29;75.26
65546;BME280;52177;55.968;37.498;2023-03-04T00:18:40;98026.38;;;-2.31;75.29
65546;BME280;52177;55.968;37.498;2023-03-04T00:19:11;98023.78;;;-2.31;75.55
65546;BME280;52177;55.968;37.498;2023-03-04T00:19:41;98023.91;;;-2.33;75.41
65546;BME280;52177;55.968;37.498;2023-03-04T00:20:11;98018.69;;;-2.33;75.60
65546;BME280;52177;55.968;37.498;2023-03-04T00:20:42;98012.63;;;-2.33;75.59
65546;BME280;52177;55.968;37.498;2023-03-04T00:21:12;98012.63;;;-2.33;75.53
65546;BME280;52177;55.968;37.498;2023-03-04T00:21:42;98011.81;;;-2.34;75.47
65546;BME280;52177;55.968;37.498;2023-03-04T00:22:12;98017.03;;;-2.34;75.58
65546;BME280;52177;55.968;37.498;2023-03-04T00:22:43;98012.50;;;-2.31;75.50
65546;BME280;52177;55.968;37.498;2023-03-04T00:23:13;98015.13;;;-2.31;75.50
65546;BME280;52177;55.968;37.498;2023-03-04T00:23:43;98012.50;;;-2.31;75.51
65546;BME280;52177;55.968;37.498;2023-03-04T00:24:13;98012.63;;;-2.33;75.34
65546;BME280;52177;55.968;37.498;2023-03-04T00:24:44;98009.22;;;-2.34;75.48
65546;BME280;52177;55.968;37.498;2023-03-04T00:25:14;98011.81;;;-2.34;75.51
65546;BME280;52177;55.968;37.498;2023-03-04T00:25:44;98005.78;;;-2.34;75.59
65546;BME280;52177;55.968;37.498;2023-03-04T00:26:15;98007.41;;;-2.33;75.72
65546;BME280;52177;55.968;37.498;2023-03-04T00:26:45;98005.91;;;-2.36;75.63
65546;BME280;52177;55.968;37.498;2023-03-04T00:27:16;98007.81;;;-2.38;75.76
65546;BME280;52177;55.968;37.498;2023-03-04T00:27:46;98007.94;;;-2.39;75.92
65546;BME280;52177;55.968;37.498;2023-03-04T00:28:16;98005.50;;;-2.41;75.86
65546;BME280;52177;55.968;37.498;2023-03-04T00:28:46;98003.84;;;-2.42;76.00
65546;BME280;52177;55.968;37.498;2023-03-04T00:29:17;98005.75;;;-2.44;76.06
65546;BME280;52177;55.968;37.498;2023-03-04T00:29:47;98004.94;;;-2.44;76.06
65546;BME280;52177;55.968;37.498;2023-03-04T00:30:17;98006.84;;;-2.46;76.23
65546;BME280;52177;55.968;37.498;2023-03-04T00:30:47;98007.81;;;-2.47;76.46
65546;BME280;52177;55.968;37.498;2023-03-04T00:31:18;98007.13;;;-2.49;76.45
65546;BME280;52177;55.968;37.498;2023-03-04T00:31:48;98004.53;;;-2.49;76.75
65546;BME280;52177;55.968;37.498;2023-03-04T00:32:18;98006.16;;;-2.48;76.59
65546;BME280;52177;55.968;37.498;2023-03-04T00:32:48;98006.03;;;-2.47;76.77
65546;BME280;52177;55.968;37.498;2023-03-04T00:33:19;98004.25;;;-2.46;76.70
65546;BME280;52177;55.968;37.498;2023-03-04T00:33:49;98000.00;;;-2.47;76.65
65546;BME280;52177;55.968;37.498;2023-03-04T00:34:19;97996.41;;;-2.46;76.96
65546;BME280;52177;55.968;37.498;2023-03-04T00:34:50;97995.47;;;-2.45;76.75
65546;BME280;52177;55.968;37.498;2023-03-04T00:35:20;97998.09;;;-2.45;77.01
65546;BME280;52177;55.968;37.498;2023-03-04T00:35:50;97991.06;;;-2.45;76.94
65546;BME280;52177;55.968;37.498;2023-03-04T00:36:21;97991.75;;;-2.43;76.80
65546;BME280;52177;55.968;37.498;2023-03-04T00:36:51;97996.00;;;-2.42;76.90
65546;BME280;52177;55.968;37.498;2023-03-04T00:37:21;97992.59;;;-2.42;77.01
65546;BME280;52177;55.968;37.498;2023-03-04T00:37:51;97995.06;;;-2.41;77.04
65546;BME280;52177;55.968;37.498;2023-03-04T00:38:21;97991.47;;;-2.40;76.95
65546;BME280;52177;55.968;37.498;2023-03-04T00:38:52;97994.78;;;-2.38;76.74
65546;BME280;52177;55.968;37.498;2023-03-04T00:39:22;97994.78;;;-2.38;76.80
65546;BME280;52177;55.968;37.498;2023-03-04T00:39:52;97996.41;;;-2.37;76.75
65546;BME280;52177;55.968;37.498;2023-03-04T00:40:22;97992.03;;;-2.36;76.82
65546;BME280;52177;55.968;37.498;2023-03-04T00:40:53;97990.13;;;-2.34;76.94
65546;BME280;52177;55.968;37.498;2023-03-04T00:41:23;97989.97;;;-2.33;76.79
65546;BME280;52177;55.968;37.498;2023-03-04T00:41:53;97995.19;;;-2.33;76.69
65546;BME280;52177;55.968;37.498;2023-03-04T00:42:23;97991.63;;;-2.31;76.76
65546;BME280;52177;55.968;37.498;2023-03-04T00:42:54;97997.66;;;-2.31;76.77
65546;BME280;52177;55.968;37.498;2023-03-04T00:43:24;97995.88;;;-2.30;76.92
65546;BME280;52177;55.968;37.498;2023-03-04T00:43:54;97993.28;;;-2.30;76.83
65546;BME280;52177;55.968;37.498;2023-03-04T00:44:24;97990.66;;;-2.30;76.66
65546;BME280;52177;55.968;37.498;2023-03-04T00:44:55;97985.31;;;-2.29;76.70
65546;BME280;52177;55.968;37.498;2023-03-04T00:45:25;97994.94;;;-2.29;76.63
65546;BME280;52177;55.968;37.498;2023-03-04T00:45:55;97988.88;;;-2.30;76.81
65546;BME280;52177;55.968;37.498;2023-03-04T00:46:25;97991.63;;;-2.31;76.75
65546;BME280;52177;55.968;37.498;2023-03-04T00:46:55;97990.78;;;-2.32;76.81
65546;BME280;52177;55.968;37.498;2023-03-04T00:47:26;97990.78;;;-2.32;77.07
65546;BME280;52177;55.968;37.498;2023-03-04T00:47:56;97981.31;;;-2.33;76.97
65546;BME280;52177;55.968;37.498;2023-03-04T00:48:26;97985.72;;;-2.34;76.90
65546;BME280;52177;55.968;37.498;2023-03-04T00:48:56;97984.75;;;-2.33;76.82
65546;BME280;52177;55.968;37.498;2023-03-04T00:49:27;97988.19;;;-2.32;76.63
65546;BME280;52177;55.968;37.498;2023-03-04T00:49:57;97975.28;;;-2.34;76.67
65546;BME280;52177;55.968;37.498;2023-03-04T00:50:27;97981.31;;;-2.33;76.85
65546;BME280;52177;55.968;37.498;2023-03-04T00:50:57;97977.75;;;-2.32;76.51
65546;BME280;52177;55.968;37.498;2023-03-04T00:51:28;97982.16;;;-2.33;76.70
65546;BME280;52177;55.968;37.498;2023-03-04T00:51:58;97979.53;;;-2.33;76.67
65546;BME280;52177;55.968;37.498;2023-03-04T00:52:28;97980.34;;;-2.32;76.75
65546;BME280;52177;55.968;37.498;2023-03-04T00:52:58;97980.50;;;-2.34;76.69
65546;BME280;52177;55.968;37.498;2023-03-04T00:53:29;97978.84;;;-2.35;76.63
65546;BME280;52177;55.968;37.498;2023-03-04T00:53:59;97979.00;;;-2.36;76.72
65546;BME280;52177;55.968;37.498;2023-03-04T00:54:29;97979.81;;;-2.36;76.75
65546;BME280;52177;55.968;37.498;2023-03-04T00:54:59;97975.53;;;-2.37;76.81
65546;BME280;52177;55.968;37.498;2023-03-04T00:55:29;97982.56;;;-2.37;76.86
65546;BME280;52177;55.968;37.498;2023-03-04T00:56:00;97979.25;;;-2.39;76.95
65546;BME280;52177;55.968;37.498;2023-03-04T00:56:30;97973.22;;;-2.40;76.98
65546;BME280;52177;55.968;37.498;2023-03-04T00:57:00;97976.94;;;-2.42;76.92
65546;BME280;52177;55.968;37.498;2023-03-04T00:57:30;97978.72;;;-2.43;76.94
65546;BME280;52177;55.968;37.498;2023-03-04T00:58:01;97979.66;;;-2.44;76.98
65546;BME280;52177;55.968;37.498;2023-03-04T00:58:31;97975.41;;;-2.45;77.07
65546;BME280;52177;55.968;37.498;2023-03-04T00:59:01;97979.94;;;-2.47;77.42
65546;BME280;52177;55.968;37.498;2023-03-04T00:59:31;97979.13;;;-2.47;77.38
65546;BME280;52177;55.968;37.498;2023-03-04T01:00:02;97982.69;;;-2.48;77.45
65546;BME280;52177;55.968;37.498;2023-03-04T01:00:32;97972.53;;;-2.51;77.68
65546;BME280;52177;55.968;37.498;2023-03-04T01:01:03;97979.53;;;-2.52;77.75
65546;BME280;52177;55.968;37.498;2023-03-04T01:01:33;97971.72;;;-2.52;77.59
65546;BME280;52177;55.968;37.498;2023-03-04T01:02:03;97965.66;;;-2.52;77.66
65546;BME280;52177;55.968;37.498;2023-03-04T01:02:33;97969.09;;;-2.52;77.76
65546;BME280;52177;55.968;37.498;2023-03-04T01:03:04;97969.09;;;-2.52;77.66
65546;BME280;52177;55.968;37.498;2023-03-04T01:03:34;97963.88;;;-2.52;77.80
65546;BME280;52177;55.968;37.498;2023-03-04T01:04:04;97968.13;;;-2.51;77.70
65546;BME280;52177;55.968;37.498;2023-03-04T01:04:35;97962.91;;;-2.51;77.89
65546;BME280;52177;55.968;37.498;2023-03-04T01:05:05;97969.78;;;-2.50;77.84
65546;BME280;52177;55.968;37.498;2023-03-04T01:05:36;97975.00;;;-2.50;77.91
65546;BME280;52177;55.968;37.498;2023-03-04T01:06:06;97969.63;;;-2.48;77.63
65546;BME280;52177;55.968;37.498;2023-03-04T01:06:36;97971.31;;;-2.47;77.59
65546;BME280;52177;55.968;37.498;2023-03-04T01:07:06;97965.38;;;-2.49;77.67
65546;BME280;52177;55.968;37.498;2023-03-04T01:07:37;97963.75;;;-2.50;77.74
65546;BME280;52177;55.968;37.498;2023-03-04T01:08:07;97968.13;;;-2.51;77.75
65546;BME280;52177;55.968;37.498;2023-03-04T01:08:37;97965.50;;;-2.51;77.77
65546;BME280;52177;55.968;37.498;2023-03-04T01:09:08;97962.91;;;-2.51;77.78
65546;BME280;52177;55.968;37.498;2023-03-04T01:09:38;97967.31;;;-2.51;77.71
65546;BME280;52177;55.968;37.498;2023-03-04T01:10:09;97960.31;;;-2.51;77.83
65546;BME280;52177;55.968;37.498;2023-03-04T01:10:40;97963.88;;;-2.52;77.89
65546;BME280;52177;55.968;37.498;2023-03-04T01:11:10;97951.78;;;-2.53;77.86
65546;BME280;52177;55.968;37.498;2023-03-04T01:11:40;97962.22;;;-2.53;77.88
65546;BME280;52177;55.968;37.498;2023-03-04T01:12:10;97951.13;;;-2.55;77.86
65546;BME280;52177;55.968;37.498;2023-03-04T01:12:41;97956.34;;;-2.55;77.89
65546;BME280;52177;55.968;37.498;2023-03-04T01:13:11;97958.94;;;-2.55;77.95
65546;BME280;52177;55.968;37.498;2023-03-04T01:13:42;97957.28;;;-2.56;77.96
65546;BME280;52177;55.968;37.498;2023-03-04T01:14:12;97959.75;;;-2.55;77.96
65546;BME280;52177;55.968;37.498;2023-03-04T01:14:42;97958.94;;;-2.55;77.83
65546;BME280;52177;55.968;37.498;2023-03-04T01:15:13;97959.75;;;-2.55;77.83
65546;BME280;52177;55.968;37.498;2023-03-04T01:15:43;97952.75;;;-2.54;77.94
65546;BME280;52177;55.968;37.498;2023-03-04T01:16:13;97952.75;;;-2.54;77.95
65546;BME280;52177;55.968;37.498;2023-03-04T01:16:44;97958.78;;;-2.53;77.85
65546;BME280;52177;55.968;37.498;2023-03-04T01:17:14;97953.56;;;-2.53;77.76
65546;BME280;52177;55.968;37.498;2023-03-04T01:17:44;97956.06;;;-2.52;77.82
65546;BME280;52177;55.968;37.498;2023-03-04T01:18:14;97952.47;;;-2.51;77.62
65546;BME280;52177;55.968;37.498;2023-03-04T01:18:45;97952.47;;;-2.51;77.83
65546;BME280;52177;55.968;37.498;2023-03-04T01:19:16;97953.44;;;-2.52;77.69
65546;BME280;52177;55.968;37.498;2023-03-04T01:19:46;97949.16;;;-2.53;77.88
65546;BME280;52177;55.968;37.498;2023-03-04T01:20:17;97957.16;;;-2.55;77.94
65546;BME280;52177;55.968;37.498;2023-03-04T01:20:47;97952.88;;;-2.56;77.97
65546;BME280;52177;55.968;37.498;2023-03-04T01:21:17;97951.13;;;-2.55;77.94
65546;BME280;52177;55.968;37.498;2023-03-04T01:21:48;97944.25;;;-2.56;78.00
65546;BME280;52177;55.968;37.498;2023-03-04T01:22:18;97947.66;;;-2.56;77.99
65546;BME280;52177;55.968;37.498;2023-03-04T01:22:48;97951.13;;;-2.55;78.12
65546;BME280;52177;55.968;37.498;2023-03-04T01:23:19;97948.63;;;-2.57;78.06
65546;BME280;52177;55.968;37.498;2023-03-04T01:23:49;97947.66;;;-2.56;77.81
65546;BME280;52177;55.968;37.498;2023-03-04T01:24:19;97953.84;;;-2.57;78.02
65546;BME280;52177;55.968;37.498;2023-03-04T01:24:49;97954.69;;;-2.56;78.10
65546;BME280;52177;55.968;37.498;2023-03-04T01:25:20;97953.03;;;-2.57;77.96
65546;BME280;52177;55.968;37.498;2023-03-04T01:25:50;97948.63;;;-2.57;78.28
65546;BME280;52177;55.968;37.498;2023-03-04T01:26:20;97948.63;;;-2.57;78.13
65546;BME280;52177;55.968;37.498;2023-03-04T01:26:51;97946.03;;;-2.57;78.16
65546;BME280;52177;55.968;37.498;2023-03-04T01:27:21;97950.28;;;-2.56;78.12
65546;BME280;52177;55.968;37.498;2023-03-04T01:27:51;97945.06;;;-2.56;78.29
65546;BME280;52177;55.968;37.498;2023-03-04T01:28:21;97947.81;;;-2.57;78.21
65546;BME280;52177;55.968;37.498;2023-03-04T01:28:52;97951.25;;;-2.57;78.38
65546;BME280;52177;55.968;37.498;2023-03-04T01:29:22;97949.31;;;-2.55;78.06
65546;BME280;52177;55.968;37.498;2023-03-04T01:29:52;97949.47;;;-2.56;78.15
65546;BME280;52177;55.968;37.498;2023-03-04T01:30:22;97948.75;;;-2.58;78.10
65546;BME280;52177;55.968;37.498;2023-03-04T01:30:53;97947.94;;;-2.59;78.23
65546;BME280;52177;55.968;37.498;2023-03-04T01:31:23;97945.47;;;-2.60;78.53
65546;BME280;52177;55.968;37.498;2023-03-04T01:31:53;97942.84;;;-2.60;78.47
65546;BME280;52177;55.968;37.498;2023-03-04T01:32:23;97945.47;;;-2.60;78.60
65546;BME280;52177;55.968;37.498;2023-03-04T01:32:53;97944.38;;;-2.58;78.54
65546;BME280;52177;55.968;37.498;2023-03-04T01:33:24;97942.72;;;-2.59;78.58
65546;BME280;52177;55.968;37.498;2023-03-04T01:33:54;97946.44;;;-2.61;78.55
65546;BME280;52177;55.968;37.498;2023-03-04T01:34:24;97946.44;;;-2.61;78.56
65546;BME280;52177;55.968;37.498;2023-03-04T01:34:55;97952.47;;;-2.61;78.72
65546;BME280;52177;55.968;37.498;2023-03-04T01:35:25;97938.63;;;-2.61;78.64
65546;BME280;52177;55.968;37.498;2023-03-04T01:35:55;97943.84;;;-2.61;78.66
65546;BME280;52177;55.968;37.498;2023-03-04T01:36:26;97948.22;;;-2.62;78.68
65546;BME280;52177;55.968;37.498;2023-03-04T01:36:56;97943.00;;;-2.62;78.86
65546;BME280;52177;55.968;37.498;2023-03-04T01:37:26;97945.63;;;-2.62;78.88
65546;BME280;52177;55.968;37.498;2023-03-04T01:37:56;97945.63;;;-2.62;78.79
65546;BME280;52177;55.968;37.498;2023-03-04T01:38:27;97950.84;;;-2.62;78.93
65546;BME280;52177;55.968;37.498;2023-03-04T01:38:57;97949.03;;;-2.61;78.88
65546;BME280;52177;55.968;37.498;2023-03-04T01:39:28;97950.03;;;-2.62;79.02
65546;BME280;52177;55.968;37.498;2023-03-04T01:39:58;97946.44;;;-2.61;78.93
65546;BME280;52177;55.968;37.498;2023-03-04T01:40:29;97955.25;;;-2.62;78.73
65546;BME280;52177;55.968;37.498;2023-03-04T01:41:00;97945.47;;;-2.60;78.57
65546;BME280;52177;55.968;37.498;2023-03-04T01:41:30;97951.66;;;-2.61;78.61
65546;BME280;52177;55.968;37.498;2023-03-04T01:42:01;97955.91;;;-2.60;78.71
65546;BME280;52177;55.968;37.498;2023-03-04T01:42:32;97948.22;;;-2.62;78.94
65546;BME280;52177;55.968;37.498;2023-03-04T01:43:03;97943.84;;;-2.61;79.00
65546;BME280;52177;55.968;37.498;2023-03-04T01:43:34;97949.88;;;-2.61;79.11
65546;BME280;52177;55.968;37.498;2023-03-04T01:44:05;97948.06;;;-2.60;78.90
65546;BME280;52177;55.968;37.498;2023-03-04T01:44:35;97947.25;;;-2.61;78.85
65546;BME280;52177;55.968;37.498;2023-03-04T01:45:06;97951.53;;;-2.60;78.98
65546;BME280;52177;55.968;37.498;2023-03-04T01:45:36;97942.72;;;-2.59;78.87
65546;BME280;52177;55.968;37.498;2023-03-04T01:46:08;97950.56;;;-2.59;78.97
65546;BME280;52177;55.968;37.498;2023-03-04T01:46:40;97944.38;;;-2.58;79.04
65546;BME280;52177;55.968;37.498;2023-03-04T01:47:11;97948.63;;;-2.57;79.14
65546;BME280;52177;55.968;37.498;2023-03-04T01:47:42;97939.84;;;-2.56;78.85
65546;BME280;52177;55.968;37.498;2023-03-04T01:48:18;97941.63;;;-2.56;78.97
65546;BME280;52177;55.968;37.498;2023-03-04T01:48:50;97939.72;;;-2.54;78.99
65546;BME280;52177;55.968;37.498;2023-03-04T01:49:20;97936.28;;;-2.55;78.88
65546;BME280;52177;55.968;37.498;2023-03-04T01:49:52;97937.09;;;-2.54;79.02
65546;BME280;52177;55.968;37.498;2023-03-04T01:50:27;97939.72;;;-2.54;78.96
65546;BME280;52177;55.968;37.498;2023-03-04T01:50:59;97940.41;;;-2.52;78.83
65546;BME280;52177;55.968;37.498;2023-03-04T01:51:32;97930.91;;;-2.53;78.91
65546;BME280;52177;55.968;37.498;2023-03-04T01:52:02;97928.19;;;-2.51;78.81
65546;BME280;52177;55.968;37.498;2023-03-04T01:52:32;97938.47;;;-2.50;78.84
65546;BME280;52177;55.968;37.498;2023-03-04T01:53:02;97935.88;;;-2.50;78.85
65546;BME280;52177;55.968;37.498;2023-03-04T01:53:33;97928.88;;;-2.49;78.86
65546;BME280;52177;55.968;37.498;2023-03-04T01:54:03;97924.75;;;-2.52;78.92
65546;BME280;52177;55.968;37.498;2023-03-04T01:54:33;97929.16;;;-2.52;78.90
65546;BME280;52177;55.968;37.498;2023-03-04T01:55:05;97922.44;;;-2.55;79.01
65546;BME280;52177;55.968;37.498;2023-03-04T01:55:36;97935.59;;;-2.57;79.06
65546;BME280;52177;55.968;37.498;2023-03-04T01:56:46;97926.09;;;-2.58;79.07
65546;BME280;52177;55.968;37.498;2023-03-04T01:57:24;97925.28;;;-2.58;79.09
65546;BME280;52177;55.968;37.498;2023-03-04T01:57:54;97923.50;;;-2.58;79.07
65546;BME280;52177;55.968;37.498;2023-03-04T01:58:28;97925.44;;;-2.60;79.02
65546;BME280;52177;55.968;37.498;2023-03-04T01:59:39;97920.22;;;-2.60;79.29
65546;BME280;52177;55.968;37.498;2023-03-04T02:00:13;97916.66;;;-2.59;79.39
65546;BME280;52177;55.968;37.498;2023-03-04T02:00:44;97919.94;;;-2.57;79.23
65546;BME280;52177;55.968;37.498;2023-03-04T02:01:14;97915.53;;;-2.56;79.35
65546;BME280;52177;55.968;37.498;2023-03-04T02:01:54;97916.38;;;-2.56;79.32
65546;BME280;52177;55.968;37.498;2023-03-04T02:02:25;97918.72;;;-2.52;79.09
65546;BME280;52177;55.968;37.498;2023-03-04T02:02:56;97916.94;;;-2.52;79.15
65546;BME280;52177;55.968;37.498;2023-03-04T02:03:27;97914.19;;;-2.50;79.19
65546;BME280;52177;55.968;37.498;2023-03-04T02:03:57;97914.19;;;-2.50;79.20
65546;BME280;52177;55.968;37.498;2023-03-04T02:04:28;97915.13;;;-2.51;79.21
65546;BME280;52177;55.968;37.498;2023-03-04T02:05:00;97912.53;;;-2.51;79.07
65546;BME280;52177;55.968;37.498;2023-03-04T02:05:30;97913.34;;;-2.51;79.04
65546;BME280;52177;55.968;37.498;2023-03-04T02:06:00;97908.28;;;-2.52;79.31
65546;BME280;52177;55.968;37.498;2023-03-04T02:06:31;97911.72;;;-2.52;79.30
65546;BME280;52177;55.968;37.498;2023-03-04T02:07:01;97914.31;;;-2.52;79.12
65546;BME280;52177;55.968;37.498;2023-03-04T02:07:32;97911.72;;;-2.52;79.20
65546;BME280;52177;55.968;37.498;2023-03-04T02:08:02;97899.47;;;-2.51;79.06
65546;BME280;52177;55.968;37.498;2023-03-04T02:08:33;97908.97;;;-2.50;79.28
65546;BME280;52177;55.968;37.498;2023-03-04T02:09:04;97910.72;;;-2.51;79.01
65546;BME280;52177;55.968;37.498;2023-03-04T02:09:35;97908.13;;;-2.51;79.13
65546;BME280;52177;55.968;37.498;2023-03-04T02:10:06;97904.69;;;-2.51;79.04
65546;BME280;52177;55.968;37.498;2023-03-04T02:10:36;97905.50;;;-2.51;79.07
65546;BME280;52177;55.968;37.498;2023-03-04T02:11:07;97899.59;;;-2.53;79.20
65546;BME280;52177;55.968;37.498;2023-03-04T02:11:38;97902.22;;;-2.53;79.19
65546;BME280;52177;55.968;37.498;2023-03-04T02:12:09;97908.28;;;-2.52;79.14
65546;BME280;52177;55.968;37.498;2023-03-04T02:12:39;97900.47;;;-2.52;79.04
65546;BME280;52177;55.968;37.498;2023-03-04T02:13:10;97903.88;;;-2.52;79.21
65546;BME280;52177;55.968;37.498;2023-03-04T02:13:40;97898.53;;;-2.50;79.00
65546;BME280;52177;55.968;37.498;2023-03-04T02:14:11;97906.38;;;-2.50;79.01
65546;BME280;52177;55.968;37.498;2023-03-04T02:14:41;97899.47;;;-2.51;79.00
65546;BME280;52177;55.968;37.498;2023-03-04T02:15:12;97901.16;;;-2.50;79.22
65546;BME280;52177;55.968;37.498;2023-03-04T02:15:43;97891.53;;;-2.50;79.18
65546;BME280;52177;55.968;37.498;2023-03-04T02:16:13;97904.41;;;-2.48;79.09
65546;BME280;52177;55.968;37.498;2023-03-04T02:16:44;97901.69;;;-2.47;78.94
65546;BME280;52177;55.968;37.498;2023-03-04T02:17:14;97899.19;;;-2.48;78.89
65546;BME280;52177;55.968;37.498;2023-03-04T02:17:45;97902.50;;;-2.46;79.03
65546;BME280;52177;55.968;37.498;2023-03-04T02:18:19;97893.84;;;-2.47;78.91
65546;BME280;52177;55.968;37.498;2023-03-04T02:18:49;97892.91;;;-2.46;78.97
65546;BME280;52177;55.968;37.498;2023-03-04T02:20:14;97895.22;;;-2.43;78.87
65546;BME280;52177;55.968;37.498;2023-03-04T02:21:38;97895.34;;;-2.44;78.81
65546;BME280;52177;55.968;37.498;2023-03-04T02:22:08;97893.44;;;-2.42;78.68
65546;BME280;52177;55.968;37.498;2023-03-04T02:22:39;97891.81;;;-2.43;78.77
65546;BME280;52177;55.968;37.498;2023-03-04T02:23:16;97895.22;;;-2.43;78.71
65546;BME280;52177;55.968;37.498;2023-03-04T02:24:40;97893.56;;;-2.44;78.64
65546;BME280;52177;55.968;37.498;2023-03-04T02:25:14;97891.13;;;-2.45;78.83
65546;BME280;52177;55.968;37.498;2023-03-04T02:25:49;97898.94;;;-2.45;78.79
65546;BME280;52177;55.968;37.498;2023-03-04T02:26:23;97894.53;;;-2.45;78.66
65546;BME280;52177;55.968;37.498;2023-03-04T02:26:54;97892.91;;;-2.46;78.78
65546;BME280;52177;55.968;37.498;2023-03-04T02:27:24;97894.53;;;-2.45;78.88
65546;BME280;52177;55.968;37.498;2023-03-04T02:27:54;97891.94;;;-2.45;78.90
65546;BME280;52177;55.968;37.498;2023-03-04T02:28:25;97895.34;;;-2.44;78.94
65546;BME280;52177;55.968;37.498;2023-03-04T02:28:56;97892.75;;;-2.44;78.91
65546;BME280;52177;55.968;37.498;2023-03-04T02:29:26;97891.13;;;-2.45;78.92
65546;BME280;52177;55.968;37.498;2023-03-04T02:29:57;97890.94;;;-2.44;79.00
65546;BME280;52177;55.968;37.498;2023-03-04T02:30:27;97892.75;;;-2.44;79.13
65546;BME280;52177;55.968;37.498;2023-03-04T02:30:57;97885.91;;;-2.45;79.02
65546;BME280;52177;55.968;37.498;2023-03-04T02:31:37;97885.06;;;-2.46;79.17
65546;BME280;52177;55.968;37.498;2023-03-04T02:32:12;97882.31;;;-2.44;79.11
65546;BME280;52177;55.968;37.498;2023-03-04T02:32:43;97882.31;;;-2.44;78.95
65546;BME280;52177;55.968;37.498;2023-03-04T02:33:13;97880.69;;;-2.45;78.92
65546;BME280;52177;55.968;37.498;2023-03-04T02:33:44;97878.88;;;-2.45;78.95
65546;BME280;52177;55.968;37.498;2023-03-04T02:34:46;97882.31;;;-2.44;79.03
65546;BME280;52177;55.968;37.498;2023-03-04T02:35:17;97881.38;;;-2.43;78.93
65546;BME280;52177;55.968;37.498;2023-03-04T02:35:48;97883.81;;;-2.42;79.10
65546;BME280;52177;55.968;37.498;2023-03-04T02:36:18;97875.03;;;-2.41;79.05
65546;BME280;52177;55.968;37.498;2023-03-04T02:36:49;97871.59;;;-2.41;78.99
65546;BME280;52177;55.968;37.498;2023-03-04T02:37:20;97868.03;;;-2.40;78.91
65546;BME280;52177;55.968;37.498;2023-03-04T02:37:50;97873.94;;;-2.38;78.90
65546;BME280;52177;55.968;37.498;2023-03-04T02:38:20;97868.84;;;-2.40;78.93
65546;BME280;52177;55.968;37.498;2023-03-04T02:38:52;97868.72;;;-2.38;79.04
65546;BME280;52177;55.968;37.498;2023-03-04T02:39:33;97872.16;;;-2.38;78.80
65546;BME280;52177;55.968;37.498;2023-03-04T02:40:03;97872.97;;;-2.37;78.87
65546;BME280;52177;55.968;37.498;2023-03-04T02:40:35;97871.16;;;-2.37;78.90
65546;BME280;52177;55.968;37.498;2023-03-04T02:41:07;97868.56;;;-2.37;78.88
65546;BME280;52177;55.968;37.498;2023-03-04T02:41:41;97869.41;;;-2.36;78.88
65546;BME280;52177;55.968;37.498;2023-03-04T02:42:11;97869.41;;;-2.36;78.91
65546;BME280;52177;55.968;37.498;2023-03-04T02:42:42;97871.16;;;-2.37;78.97
65546;BME280;52177;55.968;37.498;2023-03-04T02:43:13;97866.78;;;-2.36;78.74
65546;BME280;52177;55.968;37.498;2023-03-04T02:43:46;97871.16;;;-2.37;78.82
65546;BME280;52177;55.968;37.498;2023-03-04T02:44:18;97871.31;;;-2.38;78.87
65546;BME280;52177;55.968;37.498;2023-03-04T02:44:58;97863.34;;;-2.37;78.78
65546;BME280;52177;55.968;37.498;2023-03-04T02:46:01;97862.69;;;-2.39;78.81